sensor_id;sensor_type;location;lat;lon;timestamp;pressure;altitude;pressure_sealevel;temperature;humidity
72409;BME280;60402;48.082;11.628;2024-02-26T00:01:22;93625.69;;;0.90;100.00
72409;BME280;60402;48.082;11.628;2024-02-26T00:04:07;93616.13;;;0.91;100.00
72409;BME280;60402;48.082;11.628;2024-02-26T00:06:53;93621.63;;;0.94;100.00
72409;BME280;60402;48.082;11.628;2024-02-26T00:09:40;93619.97;;;0.97;100.00
72409;BME280;60402;48.082;11.628;2024-02-26T00:12:25;93620.69;;;1.01;100.00
72409;BME280;60402;48.082;11.628;2024-02-26T00:15:11;93612.00;;;0.99;100.00
72409;BME280;60402;48.082;11.628;2024-02-26T00:17:57;93616.19;;;0.87;100.00
72409;BME280;60402;48.082;11.628;2024-02-26T00:20:42;93624.41;;;0.94;100.00
72409;BME280;60402;48.082;11.628;2024-02-26T00:23:28;93620.25;;;0.83;100.00
72409;BME280;60402;48.082;11.628;2024-02-26T00:26:14;93627.88;;;0.79;100.00
72409;BME280;60402;48.082;11.628;2024-02-26T00:29:00;93622.38;;;0.75;100.00
72409;BME280;60402;48.082;11.628;2024-02-26T00:31:46;93611.97;;;0.59;100.00
72409;BME280;60402;48.082;11.628;2024-02-26T00:34:32;93600.88;;;0.59;100.00
72409;BME280;60402;48.082;11.628;2024-02-26T00:37:18;93592.53;;;0.59;100.00
72409;BME280;60402;48.082;11.628;2024-02-26T00:40:04;93596.88;;;0.60;100.00
72409;BME280;60402;48.082;11.628;2024-02-26T00:42:50;93592.03;;;0.64;100.00
72409;BME280;60402;48.082;11.628;2024-02-26T00:45:36;93608.09;;;0.76;100.00
72409;BME280;60402;48.082;11.628;2024-02-26T00:48:21;93596.38;;;0.65;100.00
72409;BME280;60402;48.082;11.628;2024-02-26T00:51:07;93580.69;;;0.55;100.00
72409;BME280;60402;48.082;11.628;2024-02-26T00:53:54;93608.41;;;0.59;100.00
72409;BME280;60402;48.082;11.628;2024-02-26T00:56:39;93615.03;;;0.65;100.00
72409;BME280;60402;48.082;11.628;2024-02-26T00:59:25;93595.84;;;0.50;100.00
72409;BME280;60402;48.082;11.628;2024-02-26T01:02:11;93579.75;;;0.42;100.00
72409;BME280;60402;48.082;11.628;2024-02-26T01:04:56;93585.25;;;0.45;100.00
72409;BME280;60402;48.082;11.628;2024-02-26T01:07:42;93592.72;;;0.48;100.00
72409;BME280;60402;48.082;11.628;2024-02-26T01:10:28;93591.28;;;0.40;100.00
72409;BME280;60402;48.082;11.628;2024-02-26T01:13:13;93605.84;;;0.48;100.00
72409;BME280;60402;48.082;11.628;2024-02-26T01:15:59;93600.41;;;0.41;100.00
72409;BME280;60402;48.082;11.628;2024-02-26T01:18:46;93591.13;;;0.28;100.00
72409;BME280;60402;48.082;11.628;2024-02-26T01:21:31;93596.28;;;0.29;100.00
72409;BME280;60402;48.082;11.628;2024-02-26T01:24:17;93582.88;;;0.24;100.00
72409;BME280;60402;48.082;11.628;2024-02-26T01:27:04;93586.44;;;0.24;100.00
72409;BME280;60402;48.082;11.628;2024-02-26T01:29:49;93575.94;;;0.12;100.00
72409;BME280;60402;48.082;11.628;2024-02-26T01:32:35;93568.91;;;0.04;100.00
72409;BME280;60402;48.082;11.628;2024-02-26T01:35:21;93587.81;;;0.13;100.00
72409;BME280;60402;48.082;11.628;2024-02-26T01:38:07;93589.88;;;0.09;100.00
72409;BME280;60402;48.082;11.628;2024-02-26T01:40:52;93593.84;;;0.08;100.00
72409;BME280;60402;48.082;11.628;2024-02-26T01:43:38;93584.56;;;-0.06;100.00
72409;BME280;60402;48.082;11.628;2024-02-26T01:46:24;93579.38;;;-0.04;100.00
72409;BME280;60402;48.082;11.628;2024-02-26T01:49:11;93577.63;;;0.06;100.00
72409;BME280;60402;48.082;11.628;2024-02-26T01:51:58;93586.06;;;0.22;100.00
72409;BME280;60402;48.082;11.628;2024-02-26T01:54:45;93597.00;;;0.33;100.00
72409;BME280;60402;48.082;11.628;2024-02-26T01:57:31;93588.09;;;0.18;100.00
72409;BME280;60402;48.082;11.628;2024-02-26T02:00:18;93589.81;;;0.12;100.00
72409;BME280;60402;48.082;11.628;2024-02-26T02:03:04;93586.94;;;-0.04;100.00
72409;BME280;60402;48.082;11.628;2024-02-26T02:05:50;93578.84;;;0.05;100.00
72409;BME280;60402;48.082;11.628;2024-02-26T02:08:37;93577.63;;;0.06;100.00
72409;BME280;60402;48.082;11.628;2024-02-26T02:11:23;93549.97;;;-0.01;100.00
72409;BME280;60402;48.082;11.628;2024-02-26T02:14:09;93556.44;;;0.16;100.00
72409;BME280;60402;48.082;11.628;2024-02-26T02:16:54;93569.16;;;0.13;100.00
72409;BME280;60402;48.082;11.628;2024-02-26T02:19:40;93564.53;;;0.07;100.00
72409;BME280;60402;48.082;11.628;2024-02-26T02:22:26;93561.78;;;0.27;100.00
72409;BME280;60402;48.082;11.628;2024-02-26T02:25:12;93566.31;;;0.17;100.00
72409;BME280;60402;48.082;11.628;2024-02-26T02:27:57;93545.38;;;0.12;100.00
72409;BME280;60402;48.082;11.628;2024-02-26T02:30:44;93554.16;;;0.11;100.00
72409;BME280;60402;48.082;11.628;2024-02-26T02:33:29;93564.69;;;0.19;100.00
72409;BME280;60402;48.082;11.628;2024-02-26T02:36:16;93561.69;;;0.10;100.00
72409;BME280;60402;48.082;11.628;2024-02-26T02:39:01;93546.69;;;0.04;100.00
72409;BME280;60402;48.082;11.628;2024-02-26T02:41:47;93568.34;;;-0.07;100.00
72409;BME280;60402;48.082;11.628;2024-02-26T02:44:32;93557.28;;;-0.11;100.00
72409;BME280;60402;48.082;11.628;2024-02-26T02:47:18;93560.00;;;-0.07;100.00
72409;BME280;60402;48.082;11.628;2024-02-26T02:50:04;93553.13;;;0.01;100.00
72409;BME280;60402;48.082;11.628;2024-02-26T02:52:50;93546.56;;;-0.09;100.00
72409;BME280;60402;48.082;11.628;2024-02-26T02:55:36;93564.78;;;-0.08;100.00
72409;BME280;60402;48.082;11.628;2024-02-26T02:58:21;93561.06;;;-0.01;100.00
72409;BME280;60402;48.082;11.628;2024-02-26T03:01:07;93565.50;;;-0.04;100.00
72409;BME280;60402;48.082;11.628;2024-02-26T03:03:53;93566.72;;;-0.05;100.00
72409;BME280;60402;48.082;11.628;2024-02-26T03:06:38;93564.72;;;-0.04;100.00
72409;BME280;60402;48.082;11.628;2024-02-26T03:09:24;93553.28;;;-0.10;100.00
72409;BME280;60402;48.082;11.628;2024-02-26T03:12:10;93564.63;;;-0.01;100.00
72409;BME280;60402;48.082;11.628;2024-02-26T03:14:56;93561.22;;;-0.08;100.00
72409;BME280;60402;48.082;11.628;2024-02-26T03:17:41;93554.81;;;-0.29;100.00
72409;BME280;60402;48.082;11.628;2024-02-26T03:20:27;93550.91;;;-0.31;100.00
72409;BME280;60402;48.082;11.628;2024-02-26T03:23:13;93556.31;;;-0.24;100.00
72409;BME280;60402;48.082;11.628;2024-02-26T03:26:00;93541.50;;;-0.14;100.00
72409;BME280;60402;48.082;11.628;2024-02-26T03:28:46;93545.78;;;-0.09;100.00
72409;BME280;60402;48.082;11.628;2024-02-26T03:31:32;93547.97;;;-0.01;100.00
72409;BME280;60402;48.082;11.628;2024-02-26T03:34:17;93553.03;;;0.05;100.00
72409;BME280;60402;48.082;11.628;2024-02-26T03:37:05;93558.03;;;0.13;100.00
72409;BME280;60402;48.082;11.628;2024-02-26T03:39:51;93557.66;;;0.15;100.00
72409;BME280;60402;48.082;11.628;2024-02-26T03:42:37;93562.72;;;0.20;100.00
72409;BME280;60402;48.082;11.628;2024-02-26T03:45:23;93559.63;;;0.14;100.00
72409;BME280;60402;48.082;11.628;2024-02-26T03:48:08;93551.47;;;0.04;100.00
72409;BME280;60402;48.082;11.628;2024-02-26T03:50:54;93564.16;;;0.05;100.00
72409;BME280;60402;48.082;11.628;2024-02-26T03:53:39;93557.66;;;0.15;100.00
72409;BME280;60402;48.082;11.628;2024-02-26T03:56:26;93549.06;;;0.06;100.00
72409;BME280;60402;48.082;11.628;2024-02-26T03:59:12;93545.16;;;0.03;100.00
72409;BME280;60402;48.082;11.628;2024-02-26T04:01:57;93545.56;;;0.02;100.00
72409;BME280;60402;48.082;11.628;2024-02-26T04:04:43;93525.06;;;-0.05;100.00
72409;BME280;60402;48.082;11.628;2024-02-26T04:07:29;93546.69;;;0.04;100.00
72409;BME280;60402;48.082;11.628;2024-02-26T04:10:14;93539.97;;;0.05;100.00
72409;BME280;60402;48.082;11.628;2024-02-26T04:13:00;93528.31;;;-0.10;100.00
72409;BME280;60402;48.082;11.628;2024-02-26T04:15:46;93542.75;;;0.05;100.00
72409;BME280;60402;48.082;11.628;2024-02-26T04:18:33;93542.97;;;0.14;100.00
72409;BME280;60402;48.082;11.628;2024-02-26T04:21:18;93543.44;;;0.09;100.00
72409;BME280;60402;48.082;11.628;2024-02-26T04:24:04;93536.59;;;-0.06;100.00
72409;BME280;60402;48.082;11.628;2024-02-26T04:26:50;93543.22;;;0.00;100.00
72409;BME280;60402;48.082;11.628;2024-02-26T04:29:35;93564.16;;;0.05;100.00
72409;BME280;60402;48.082;11.628;2024-02-26T04:32:21;93557.69;;;0.11;100.00
72409;BME280;60402;48.082;11.628;2024-02-26T04:35:07;93532.19;;;-0.04;100.00
72409;BME280;60402;48.082;11.628;2024-02-26T04:37:52;93558.97;;;0.07;100.00
72409;BME280;60402;48.082;11.628;2024-02-26T04:40:38;93565.06;;;-0.02;100.00
72409;BME280;60402;48.082;11.628;2024-02-26T04:43:24;93567.06;;;-0.03;100.00
72409;BME280;60402;48.082;11.628;2024-02-26T04:46:10;93538.97;;;-0.28;100.00
72409;BME280;60402;48.082;11.628;2024-02-26T04:48:55;93542.81;;;-0.22;100.00
72409;BME280;60402;48.082;11.628;2024-02-26T04:51:41;93565.81;;;-0.21;100.00
72409;BME280;60402;48.082;11.628;2024-02-26T04:54:26;93553.91;;;-0.22;100.00
72409;BME280;60402;48.082;11.628;2024-02-26T04:57:12;93563.31;;;-0.16;100.00
72409;BME280;60402;48.082;11.628;2024-02-26T04:59:58;93547.19;;;-0.24;100.00
72409;BME280;60402;48.082;11.628;2024-02-26T05:02:43;93546.66;;;-0.16;100.00
72409;BME280;60402;48.082;11.628;2024-02-26T05:05:29;93536.47;;;-0.22;100.00
72409;BME280;60402;48.082;11.628;2024-02-26T05:08:15;93532.53;;;-0.25;100.00
72409;BME280;60402;48.082;11.628;2024-02-26T05:11:00;93530.56;;;-0.24;100.00
72409;BME280;60402;48.082;11.628;2024-02-26T05:13:48;93530.78;;;-0.15;100.00
72409;BME280;60402;48.082;11.628;2024-02-26T05:16:33;93545.34;;;-0.08;100.00
72409;BME280;60402;48.082;11.628;2024-02-26T05:19:19;93549.34;;;-0.09;100.00
72409;BME280;60402;48.082;11.628;2024-02-26T05:22:05;93544.19;;;-0.10;100.00
72409;BME280;60402;48.082;11.628;2024-02-26T05:24:50;93562.84;;;-0.11;100.00
72409;BME280;60402;48.082;11.628;2024-02-26T05:27:37;93555.13;;;0.01;100.00
72409;BME280;60402;48.082;11.628;2024-02-26T05:30:22;93560.84;;;-0.10;100.00
72409;BME280;60402;48.082;11.628;2024-02-26T05:33:08;93552.94;;;-0.12;100.00
72409;BME280;60402;48.082;11.628;2024-02-26T05:35:53;93559.75;;;-0.16;100.00
72409;BME280;60402;48.082;11.628;2024-02-26T05:38:39;93555.66;;;-0.08;100.00
72409;BME280;60402;48.082;11.628;2024-02-26T05:41:25;93531.94;;;-0.13;100.00
72409;BME280;60402;48.082;11.628;2024-02-26T05:44:11;93557.94;;;-0.03;100.00
72409;BME280;60402;48.082;11.628;2024-02-26T05:46:57;93562.78;;;-0.07;100.00
72409;BME280;60402;48.082;11.628;2024-02-26T05:49:43;93560.84;;;-0.10;100.00
72409;BME280;60402;48.082;11.628;2024-02-26T05:52:29;93575.09;;;-0.08;100.00
72409;BME280;60402;48.082;11.628;2024-02-26T05:55:18;93575.03;;;-0.05;100.00
72409;BME280;60402;48.082;11.628;2024-02-26T05:58:04;93573.09;;;-0.08;100.00
72409;BME280;60402;48.082;11.628;2024-02-26T06:00:49;93577.16;;;-0.12;100.00
72409;BME280;60402;48.082;11.628;2024-02-26T06:03:35;93582.28;;;-0.11;100.00
72409;BME280;60402;48.082;11.628;2024-02-26T06:06:21;93572.66;;;-0.06;100.00
72409;BME280;60402;48.082;11.628;2024-02-26T06:09:08;93581.97;;;0.07;100.00
72409;BME280;60402;48.082;11.628;2024-02-26T06:11:54;93585.34;;;0.18;100.00
72409;BME280;60402;48.082;11.628;2024-02-26T06:14:39;93581.72;;;0.21;100.00
72409;BME280;60402;48.082;11.628;2024-02-26T06:17:25;93579.22;;;0.27;100.00
72409;BME280;60402;48.082;11.628;2024-02-26T06:20:11;93586.06;;;0.22;100.00
72409;BME280;60402;48.082;11.628;2024-02-26T06:22:58;93611.81;;;0.46;100.00
72409;BME280;60402;48.082;11.628;2024-02-26T06:25:43;93590.03;;;0.45;100.00
72409;BME280;60402;48.082;11.628;2024-02-26T06:28:29;93584.91;;;0.43;100.00
72409;BME280;60402;48.082;11.628;2024-02-26T06:31:17;93588.69;;;0.53;100.00
72409;BME280;60402;48.082;11.628;2024-02-26T06:34:03;93612.50;;;0.74;100.00
72409;BME280;60402;48.082;11.628;2024-02-26T06:36:49;93608.38;;;0.82;100.00
72409;BME280;60402;48.082;11.628;2024-02-26T06:39:34;93610.66;;;0.87;100.00
72409;BME280;60402;48.082;11.628;2024-02-26T06:42:20;93620.25;;;0.83;100.00
72409;BME280;60402;48.082;11.628;2024-02-26T06:45:06;93622.31;;;0.98;100.00
72409;BME280;60402;48.082;11.628;2024-02-26T06:47:52;93622.97;;;1.06;100.00
72409;BME280;60402;48.082;11.628;2024-02-26T06:50:38;93628.75;;;1.15;100.00
72409;BME280;60402;48.082;11.628;2024-02-26T06:53:24;93625.13;;;1.18;100.00
72409;BME280;60402;48.082;11.628;2024-02-26T06:56:09;93638.22;;;1.38;100.00
72409;BME280;60402;48.082;11.628;2024-02-26T06:58:55;93653.31;;;1.57;100.00
72409;BME280;60402;48.082;11.628;2024-02-26T07:01:41;93650.63;;;1.69;100.00
72409;BME280;60402;48.082;11.628;2024-02-26T07:04:27;93627.88;;;1.74;100.00
72409;BME280;60402;48.082;11.628;2024-02-26T07:07:13;93653.28;;;1.93;100.00
72409;BME280;60402;48.082;11.628;2024-02-26T07:09:58;93651.38;;;2.06;100.00
72409;BME280;60402;48.082;11.628;2024-02-26T07:12:44;93645.47;;;2.20;100.00
72409;BME280;60402;48.082;11.628;2024-02-26T07:15:30;93621.97;;;2.21;100.00
72409;BME280;60402;48.082;11.628;2024-02-26T07:18:15;93637.28;;;2.46;99.56
72409;BME280;60402;48.082;11.628;2024-02-26T07:21:02;93649.25;;;2.75;97.27
72409;BME280;60402;48.082;11.628;2024-02-26T07:23:49;93653.59;;;2.93;96.58
72409;BME280;60402;48.082;11.628;2024-02-26T07:26:34;93659.31;;;3.02;96.83
72409;BME280;60402;48.082;11.628;2024-02-26T07:29:20;93656.69;;;3.11;96.77
72409;BME280;60402;48.082;11.628;2024-02-26T07:32:06;93656.69;;;3.24;96.39
72409;BME280;60402;48.082;11.628;2024-02-26T07:34:52;93653.84;;;3.40;95.21
72409;BME280;60402;48.082;11.628;2024-02-26T07:37:37;93647.69;;;3.87;92.56
72409;BME280;60402;48.082;11.628;2024-02-26T07:40:23;93643.66;;;4.14;88.83
72409;BME280;60402;48.082;11.628;2024-02-26T07:43:08;93658.34;;;4.78;86.96
72409;BME280;60402;48.082;11.628;2024-02-26T07:45:54;93660.72;;;5.01;84.45
72409;BME280;60402;48.082;11.628;2024-02-26T07:48:40;93666.25;;;5.49;82.80
72409;BME280;60402;48.082;11.628;2024-02-26T07:51:26;93677.06;;;6.03;81.07
72409;BME280;60402;48.082;11.628;2024-02-26T07:54:12;93684.03;;;5.99;82.31
72409;BME280;60402;48.082;11.628;2024-02-26T07:56:58;93673.34;;;5.84;84.59
72409;BME280;60402;48.082;11.628;2024-02-26T07:59:43;93686.28;;;5.60;88.67
72409;BME280;60402;48.082;11.628;2024-02-26T08:02:30;93680.38;;;5.45;90.56
72409;BME280;60402;48.082;11.628;2024-02-26T08:05:16;93681.38;;;5.51;88.28
72409;BME280;60402;48.082;11.628;2024-02-26T08:08:01;93687.06;;;5.04;87.80
72409;BME280;60402;48.082;11.628;2024-02-26T08:10:50;93677.03;;;4.81;88.51
72409;BME280;60402;48.082;11.628;2024-02-26T08:13:36;93702.44;;;4.61;89.16
72409;BME280;60402;48.082;11.628;2024-02-26T08:16:22;93675.97;;;4.40;90.95
72409;BME280;60402;48.082;11.628;2024-02-26T08:19:07;93689.94;;;4.40;92.35
72409;BME280;60402;48.082;11.628;2024-02-26T08:21:55;93680.06;;;4.74;92.08
72409;BME280;60402;48.082;11.628;2024-02-26T08:24:42;93668.09;;;4.73;91.62
72409;BME280;60402;48.082;11.628;2024-02-26T08:27:28;93642.28;;;4.56;90.34
72409;BME280;60402;48.082;11.628;2024-02-26T08:30:15;93676.06;;;4.62;91.41
72409;BME280;60402;48.082;11.628;2024-02-26T08:33:02;93666.31;;;4.67;91.09
72409;BME280;60402;48.082;11.628;2024-02-26T08:35:48;93672.72;;;4.89;90.96
72409;BME280;60402;48.082;11.628;2024-02-26T08:38:34;93669.13;;;4.67;91.77
72409;BME280;60402;48.082;11.628;2024-02-26T08:41:21;93701.75;;;4.82;92.19
72409;BME280;60402;48.082;11.628;2024-02-26T08:44:06;93687.28;;;4.97;90.25
72409;BME280;60402;48.082;11.628;2024-02-26T08:46:52;93684.22;;;5.38;89.08
72409;BME280;60402;48.082;11.628;2024-02-26T08:49:42;93697.31;;;5.63;87.39
72409;BME280;60402;48.082;11.628;2024-02-26T08:52:31;93687.31;;;5.75;87.31
72409;BME280;60402;48.082;11.628;2024-02-26T08:55:17;93701.81;;;5.83;89.56
72409;BME280;60402;48.082;11.628;2024-02-26T08:58:03;93707.56;;;6.01;89.15
72409;BME280;60402;48.082;11.628;2024-02-26T09:00:49;93695.03;;;6.15;84.81
72409;BME280;60402;48.082;11.628;2024-02-26T09:03:38;93685.31;;;6.07;82.91
72409;BME280;60402;48.082;11.628;2024-02-26T09:06:27;93675.81;;;6.04;81.63
72409;BME280;60402;48.082;11.628;2024-02-26T09:09:13;93709.00;;;6.37;81.07
72409;BME280;60402;48.082;11.628;2024-02-26T09:11:59;93692.69;;;6.54;79.27
72409;BME280;60402;48.082;11.628;2024-02-26T09:14:47;93709.00;;;6.77;78.93
72409;BME280;60402;48.082;11.628;2024-02-26T09:17:33;93697.13;;;6.64;79.08
72409;BME280;60402;48.082;11.628;2024-02-26T09:20:19;93711.63;;;6.72;77.34
72409;BME280;60402;48.082;11.628;2024-02-26T09:23:09;93705.47;;;6.95;77.80
72409;BME280;60402;48.082;11.628;2024-02-26T09:25:55;93701.00;;;7.25;79.40
72409;BME280;60402;48.082;11.628;2024-02-26T09:28:40;93691.59;;;7.01;77.80
72409;BME280;60402;48.082;11.628;2024-02-26T09:31:26;93699.28;;;7.18;77.24
72409;BME280;60402;48.082;11.628;2024-02-26T09:34:11;93696.19;;;7.44;76.20
72409;BME280;60402;48.082;11.628;2024-02-26T09:36:57;93697.41;;;7.80;75.55
72409;BME280;60402;48.082;11.628;2024-02-26T09:39:43;93712.41;;;7.95;73.17
72409;BME280;60402;48.082;11.628;2024-02-26T09:42:31;93704.94;;;7.83;75.05
72409;BME280;60402;48.082;11.628;2024-02-26T09:45:18;93697.75;;;7.73;73.80
72409;BME280;60402;48.082;11.628;2024-02-26T09:48:08;93708.97;;;8.09;74.30
72409;BME280;60402;48.082;11.628;2024-02-26T09:50:56;93707.44;;;8.60;73.29
72409;BME280;60402;48.082;11.628;2024-02-26T09:53:43;93710.34;;;8.75;72.67
72409;BME280;60402;48.082;11.628;2024-02-26T09:56:30;93691.41;;;9.08;72.04
72409;BME280;60402;48.082;11.628;2024-02-26T09:59:18;93708.84;;;9.69;69.13
72409;BME280;60402;48.082;11.628;2024-02-26T10:02:04;93702.25;;;9.25;69.67
72409;BME280;60402;48.082;11.628;2024-02-26T10:04:50;93701.00;;;8.68;72.11
72409;BME280;60402;48.082;11.628;2024-02-26T10:07:37;93701.25;;;8.28;70.95
72409;BME280;60402;48.082;11.628;2024-02-26T10:10:24;93699.81;;;8.42;72.35
72409;BME280;60402;48.082;11.628;2024-02-26T10:13:10;93706.09;;;8.28;73.10
72409;BME280;60402;48.082;11.628;2024-02-26T10:15:57;93698.25;;;8.32;72.71
72409;BME280;60402;48.082;11.628;2024-02-26T10:18:50;93703.50;;;8.06;71.59
72409;BME280;60402;48.082;11.628;2024-02-26T10:21:36;93688.66;;;8.05;71.30
72409;BME280;60402;48.082;11.628;2024-02-26T10:24:22;93685.94;;;8.38;71.18
72409;BME280;60402;48.082;11.628;2024-02-26T10:27:08;93682.66;;;8.22;69.96
72409;BME280;60402;48.082;11.628;2024-02-26T10:29:56;93687.50;;;8.21;71.10
72409;BME280;60402;48.082;11.628;2024-02-26T10:32:43;93688.63;;;8.14;71.67
72409;BME280;60402;48.082;11.628;2024-02-26T10:35:30;93686.13;;;8.07;72.53
72409;BME280;60402;48.082;11.628;2024-02-26T10:38:16;93663.00;;;8.12;73.78
72409;BME280;60402;48.082;11.628;2024-02-26T10:41:06;93661.53;;;8.26;72.16
72409;BME280;60402;48.082;11.628;2024-02-26T10:43:52;93641.22;;;8.22;72.10
72409;BME280;60402;48.082;11.628;2024-02-26T10:46:40;93652.59;;;8.46;71.91
72409;BME280;60402;48.082;11.628;2024-02-26T10:49:26;93654.00;;;8.41;71.70
72409;BME280;60402;48.082;11.628;2024-02-26T10:52:12;93664.00;;;8.52;68.38
72409;BME280;60402;48.082;11.628;2024-02-26T10:55:05;93671.19;;;8.53;68.58
72409;BME280;60402;48.082;11.628;2024-02-26T10:57:54;93678.91;;;8.76;68.00
72409;BME280;60402;48.082;11.628;2024-02-26T11:00:41;93689.09;;;8.98;66.88
72409;BME280;60402;48.082;11.628;2024-02-26T11:03:28;93696.50;;;9.43;66.52
72409;BME280;60402;48.082;11.628;2024-02-26T11:06:18;93688.06;;;9.43;66.03
72409;BME280;60402;48.082;11.628;2024-02-26T11:09:06;93681.22;;;9.35;66.25
72409;BME280;60402;48.082;11.628;2024-02-26T11:11:54;93691.00;;;9.25;61.63
72409;BME280;60402;48.082;11.628;2024-02-26T11:14:40;93694.94;;;9.66;61.18
72409;BME280;60402;48.082;11.628;2024-02-26T11:17:30;93713.34;;;9.76;60.87
72409;BME280;60402;48.082;11.628;2024-02-26T11:20:17;93705.06;;;9.72;61.37
72409;BME280;60402;48.082;11.628;2024-02-26T11:23:04;93713.94;;;9.80;60.87
72409;BME280;60402;48.082;11.628;2024-02-26T11:25:52;93705.88;;;9.88;60.28
72409;BME280;60402;48.082;11.628;2024-02-26T11:28:40;93714.69;;;10.19;60.18
72409;BME280;60402;48.082;11.628;2024-02-26T11:31:26;93722.38;;;10.19;60.78
72409;BME280;60402;48.082;11.628;2024-02-26T11:34:13;93701.38;;;10.35;61.73
72409;BME280;60402;48.082;11.628;2024-02-26T11:37:09;93670.59;;;10.07;59.82
72409;BME280;60402;48.082;11.628;2024-02-26T11:39:54;93699.34;;;10.50;60.26
72409;BME280;60402;48.082;11.628;2024-02-26T11:42:44;93701.84;;;10.63;59.29
72409;BME280;60402;48.082;11.628;2024-02-26T11:45:48;93706.09;;;11.03;59.72
72409;BME280;60402;48.082;11.628;2024-02-26T11:48:35;93700.03;;;11.45;56.24
72409;BME280;60402;48.082;11.628;2024-02-26T11:51:25;93696.56;;;11.35;56.23
72409;BME280;60402;48.082;11.628;2024-02-26T11:54:12;93672.25;;;11.08;55.83
72409;BME280;60402;48.082;11.628;2024-02-26T11:56:57;93682.00;;;11.07;55.96
72409;BME280;60402;48.082;11.628;2024-02-26T11:59:44;93682.78;;;11.08;56.26
72409;BME280;60402;48.082;11.628;2024-02-26T12:05:32;93677.34;;;11.04;56.61
72409;BME280;60402;48.082;11.628;2024-02-26T12:08:20;93685.53;;;11.02;56.87
72409;BME280;60402;48.082;11.628;2024-02-26T12:11:14;93668.81;;;10.84;57.92
72409;BME280;60402;48.082;11.628;2024-02-26T12:14:00;93661.00;;;10.93;56.19
72409;BME280;60402;48.082;11.628;2024-02-26T12:16:47;93678.88;;;11.05;58.65
72409;BME280;60402;48.082;11.628;2024-02-26T12:19:36;93659.34;;;11.22;55.75
72409;BME280;60402;48.082;11.628;2024-02-26T12:22:22;93673.84;;;11.30;54.80
72409;BME280;60402;48.082;11.628;2024-02-26T12:25:09;93673.59;;;11.48;54.78
72409;BME280;60402;48.082;11.628;2024-02-26T12:27:55;93673.94;;;11.35;52.37
72409;BME280;60402;48.082;11.628;2024-02-26T12:30:40;93684.34;;;11.44;52.38
72409;BME280;60402;48.082;11.628;2024-02-26T12:33:27;93688.84;;;11.36;52.24
72409;BME280;60402;48.082;11.628;2024-02-26T12:36:13;93691.97;;;11.58;53.65
72409;BME280;60402;48.082;11.628;2024-02-26T12:38:59;93715.44;;;11.64;51.14
72409;BME280;60402;48.082;11.628;2024-02-26T12:41:46;93705.41;;;11.63;49.49
72409;BME280;60402;48.082;11.628;2024-02-26T12:44:35;93708.16;;;11.58;51.52
72409;BME280;60402;48.082;11.628;2024-02-26T12:47:20;93710.63;;;11.15;53.06
72409;BME280;60402;48.082;11.628;2024-02-26T12:50:07;93710.25;;;11.42;52.23
72409;BME280;60402;48.082;11.628;2024-02-26T12:52:53;93718.41;;;11.55;51.63
72409;BME280;60402;48.082;11.628;2024-02-26T12:55:39;93711.47;;;11.36;53.08
72409;BME280;60402;48.082;11.628;2024-02-26T12:58:26;93719.19;;;11.56;53.26
72409;BME280;60402;48.082;11.628;2024-02-26T13:01:18;93723.34;;;11.81;50.59
72409;BME280;60402;48.082;11.628;2024-02-26T13:04:06;93729.63;;;11.85;49.64
72409;BME280;60402;48.082;11.628;2024-02-26T13:06:52;93731.31;;;11.97;47.80
72409;BME280;60402;48.082;11.628;2024-02-26T13:09:38;93718.28;;;11.64;48.62
72409;BME280;60402;48.082;11.628;2024-02-26T13:12:23;93731.31;;;11.76;49.01
72409;BME280;60402;48.082;11.628;2024-02-26T13:15:14;93722.31;;;11.58;48.46
72409;BME280;60402;48.082;11.628;2024-02-26T13:18:09;93731.44;;;11.67;48.68
72409;BME280;60402;48.082;11.628;2024-02-26T13:20:55;93724.38;;;11.77;50.64
72409;BME280;60402;48.082;11.628;2024-02-26T13:23:52;93723.72;;;11.68;53.75
72409;BME280;60402;48.082;11.628;2024-02-26T13:26:38;93711.16;;;11.89;57.06
72409;BME280;60402;48.082;11.628;2024-02-26T13:29:24;93709.03;;;11.84;59.29
72409;BME280;60402;48.082;11.628;2024-02-26T13:32:15;93721.25;;;11.75;60.04
72409;BME280;60402;48.082;11.628;2024-02-26T13:35:19;93738.41;;;11.51;61.56
72409;BME280;60402;48.082;11.628;2024-02-26T13:38:05;93720.47;;;11.75;62.21
72409;BME280;60402;48.082;11.628;2024-02-26T13:40:54;93728.38;;;11.86;62.26
72409;BME280;60402;48.082;11.628;2024-02-26T13:43:40;93750.19;;;11.65;64.90
72409;BME280;60402;48.082;11.628;2024-02-26T13:46:26;93744.19;;;11.42;63.24
72409;BME280;60402;48.082;11.628;2024-02-26T13:49:12;93753.56;;;11.48;64.10
72409;BME280;60402;48.082;11.628;2024-02-26T13:51:58;93751.09;;;11.21;63.03
72409;BME280;60402;48.082;11.628;2024-02-26T13:54:43;93739.53;;;11.39;62.71
72409;BME280;60402;48.082;11.628;2024-02-26T13:57:29;93745.09;;;11.69;60.54
72409;BME280;60402;48.082;11.628;2024-02-26T14:00:15;93752.72;;;11.27;60.43
72409;BME280;60402;48.082;11.628;2024-02-26T14:03:01;93759.16;;;11.28;61.83
72409;BME280;60402;48.082;11.628;2024-02-26T14:05:47;93745.44;;;11.21;62.52
72409;BME280;60402;48.082;11.628;2024-02-26T14:08:32;93754.00;;;11.26;61.66
72409;BME280;60402;48.082;11.628;2024-02-26T14:11:19;93760.75;;;11.14;61.60
72409;BME280;60402;48.082;11.628;2024-02-26T14:14:04;93767.19;;;11.00;63.08
72409;BME280;60402;48.082;11.628;2024-02-26T14:16:50;93766.03;;;11.07;63.43
72409;BME280;60402;48.082;11.628;2024-02-26T14:19:36;93756.97;;;11.03;64.05
72409;BME280;60402;48.082;11.628;2024-02-26T14:22:23;93771.91;;;11.38;62.12
72409;BME280;60402;48.082;11.628;2024-02-26T14:25:09;93759.16;;;11.28;63.86
72409;BME280;60402;48.082;11.628;2024-02-26T14:27:54;93779.84;;;11.19;65.30
72409;BME280;60402;48.082;11.628;2024-02-26T14:30:40;93774.81;;;10.79;67.09
72409;BME280;60402;48.082;11.628;2024-02-26T14:33:26;93794.38;;;10.68;67.82